« 定点 富山空港 2015/11/22 sun | トップページ | 筑波海軍航空隊記念館 笠間市 2015/11/27 fri »

2015/11/23

帰路JJP580【福岡-中部】 福岡・中部 2015/10/26 mon

築城帰り、福岡空港からはジェットスター580便で中部経由で帰還します。デッキで一時撮影した後、いよいよ搭乗からの空撮をまとめて。

RJFF 260000Z VRB01KT CAVOK 17/07 Q1022 RMK A3018

20151026_jjp580_00rjff

第一出発から搭乗待合室へ

20151026_jjp580_01ja06fj

搭乗は徒歩移動で平地から・・ 途中駐機している機体を眺められるのも福岡の楽しみ。

20151026_jjp580_02ja15jj

JJP580 RJFF-RJGG JA15JJ A320-232

20151026_jjp580_03ja773j

JAL307 RJTT-RJFF JA773J B777-246

徒歩搭乗の合間に、一枚

20151026_jjp580_04rjff

プッシュバックしてRW18へ向かいます

20151026_jjp580_05n39297

UAL165 PGUM-RJFF N39297 B737-824

20151026_jjp580_06x9vjsv

JSA510 RJFF-WSSS 9V-JSV A320-232

ジェットスターからジェットスター。こちらはジャパンで、向こうはアジア。

20151026_jjp580_07ja09rj

IBX21 RJFF-RJFM JA09RJ CRJ-702ER

20151026_jjp580_08rjff

10:25エアボーン

20151026_jjp580_09rjff

鳥栖付近

20151026_jjp580_10sangunzan

ここからかなり補正をかけて、存在だけでもはっきりさせています。

航空局三郡山ARSR

20151026_jjp580_11rjof

防府飛行場

20151026_jjp580_12rjoi

岩国飛行場

20151026_jjp580_13rjom

松山空港

20151026_jjp580_14rjot

高松空港

20151026_jjp580_15rjos

徳島飛行場

20151026_jjp580_16rjop

小松島飛行場

20151026_jjp580_17rjbe

関西国際空港と神戸空港

20151026_jjp580_18rjbb

関空の向こうに明石大橋

20151026_jjp580_19kasatoriyama

航空自衛隊笠取山レーダー

20151026_jjp580_20isewan

旧海軍香良洲飛行場跡と伊勢湾へリポート

20151026_jjp580_21hs

THA645 RJGG-VTBS HS- B777-3D7

中部から上がったタイが上昇していきました。

20151026_jjp580_22rjgg

いよいよ中部のベースに入りました

20151026_jjp580_23boe

沖合いを787用部品運搬船が向かってきます。

20151026_jjp580_24rjgg

RW36ランディング

20151026_jjp580_25ja845a

ANA1825 RJGG-RJOM JA845A DHC8-402Q

隣からポンバルが出発していきます。

RJGG 260230Z 29005KT 260V330 9999 FEW030 SCT/// 16/03 Q1022 NOSIG

空の旅は、これにて終わり。後は陸路でマイホームまで、まだまだ。

|

« 定点 富山空港 2015/11/22 sun | トップページ | 筑波海軍航空隊記念館 笠間市 2015/11/27 fri »

福岡空港」カテゴリの記事

中部国際空港」カテゴリの記事

コメント

コメントを書く



(ウェブ上には掲載しません)


コメントは記事投稿者が公開するまで表示されません。



トラックバック


この記事へのトラックバック一覧です: 帰路JJP580【福岡-中部】 福岡・中部 2015/10/26 mon:

« 定点 富山空港 2015/11/22 sun | トップページ | 筑波海軍航空隊記念館 笠間市 2015/11/27 fri »